Time;durP1;ratioP1;P1;durP2;ratioP2;P2;SDS_P1;SDS_P2;PMS_P1;PMS_P2;Temp;Humidity;BMP_temperature;BMP_pressure;BME280_temperature;BME280_humidity;BME280_pressure;Samples;Min_cycle;Max_cycle;Signal;HPM_P1;HPM_P2
2023/05/19 00:01:46;;;;;;;4.13;2.50;;;10.20;99.90;;;;;;5057449;28;20202;-73
2023/05/19 00:04:14;;;;;;;6.07;3.07;;;10.20;99.90;;;;;;5071089;28;20235;-73
2023/05/19 00:06:43;;;;;;;6.80;3.10;;;10.20;99.90;;;;;;5066369;28;20194;-73
2023/05/19 00:09:11;;;;;;;6.67;3.10;;;10.20;99.90;;;;;;5063366;28;20228;-73
2023/05/19 00:11:40;;;;;;;5.93;2.70;;;10.20;99.90;;;;;;5078608;28;20193;-73
2023/05/19 00:14:08;;;;;;;5.77;2.83;;;10.20;99.90;;;;;;5077281;28;20201;-73
2023/05/19 00:16:36;;;;;;;5.70;3.00;;;10.10;99.90;;;;;;5069272;28;20560;-73
2023/05/19 00:19:05;;;;;;;7.13;3.10;;;10.10;99.90;;;;;;5067792;28;20208;-73
2023/05/19 00:21:32;;;;;;;9.50;3.47;;;10.10;99.90;;;;;;5058891;28;20209;-73
2023/05/19 00:23:59;;;;;;;5.37;2.77;;;10.00;99.90;;;;;;5064519;28;20622;-73
2023/05/19 00:26:27;;;;;;;5.40;3.07;;;10.00;99.90;;;;;;5077560;28;20197;-73
2023/05/19 00:28:54;;;;;;;8.33;3.10;;;10.00;99.90;;;;;;5078846;28;20703;-73
2023/05/19 00:31:21;;;;;;;6.23;2.80;;;10.00;99.90;;;;;;5061720;28;20198;-73
2023/05/19 00:33:47;;;;;;;5.00;3.00;;;10.00;99.90;;;;;;5059767;28;20197;-73
2023/05/19 00:36:14;;;;;;;5.37;2.90;;;10.00;99.90;;;;;;5065727;28;20205;-73
2023/05/19 00:38:41;;;;;;;6.13;3.20;;;10.00;99.90;;;;;;5068146;28;20557;-73
2023/05/19 00:41:07;;;;;;;6.87;3.07;;;10.10;99.90;;;;;;5077922;28;20192;-74
2023/05/19 00:43:35;;;;;;;5.67;2.87;;;10.00;99.90;;;;;;5065797;28;20206;-73
2023/05/19 00:46:02;;;;;;;5.43;2.93;;;10.00;99.90;;;;;;5065105;28;20197;-73
2023/05/19 00:48:29;;;;;;;5.17;2.70;;;10.00;99.90;;;;;;5076453;28;20221;-73
2023/05/19 00:51:00;;;;;;;5.17;2.63;;;10.00;99.90;;;;;;5078247;28;20200;-73
2023/05/19 00:53:28;;;;;;;5.67;2.57;;;10.00;99.90;;;;;;5078070;28;20225;-74
2023/05/19 00:55:54;;;;;;;7.50;3.03;;;10.00;99.90;;;;;;5065695;28;20223;-73
2023/05/19 00:58:22;;;;;;;7.93;2.90;;;9.90;99.90;;;;;;5062364;28;20534;-74
2023/05/19 01:00:50;;;;;;;5.23;3.20;;;9.90;99.90;;;;;;5073800;28;20549;-73
2023/05/19 01:03:19;;;;;;;9.60;3.30;;;9.80;99.90;;;;;;5070946;28;20660;-74
2023/05/19 01:05:46;;;;;;;7.20;3.03;;;9.80;99.90;;;;;;5061711;28;20203;-74
2023/05/19 01:08:13;;;;;;;8.13;3.23;;;9.90;99.90;;;;;;5077616;28;20223;-74
2023/05/19 01:10:40;;;;;;;5.53;3.10;;;9.80;99.90;;;;;;5074643;28;20228;-74
2023/05/19 01:13:07;;;;;;;6.53;2.83;;;9.80;99.90;;;;;;5063716;28;20222;-73
2023/05/19 01:15:39;;;;;;;7.67;2.97;;;9.90;99.90;;;;;;5069027;28;20197;-74
2023/05/19 01:18:11;;;;;;;6.47;3.00;;;9.90;99.90;;;;;;5077169;28;20205;-74
2023/05/19 01:20:41;;;;;;;5.33;2.60;;;9.90;99.90;;;;;;5074590;28;20588;-73
2023/05/19 01:23:23;;;;;;;6.97;3.37;;;9.90;99.90;;;;;;5063825;28;20197;-74
2023/05/19 01:26:24;;;;;;;5.23;2.90;;;9.90;99.90;;;;;;5056079;28;20259;-74
2023/05/19 01:29:16;;;;;;;3.67;2.47;;;9.90;99.90;;;;;;5058894;28;20270;-74
2023/05/19 01:31:47;;;;;;;7.87;3.27;;;10.00;99.90;;;;;;5074809;28;20201;-74
2023/05/19 01:34:16;;;;;;;10.13;4.30;;;9.90;99.90;;;;;;5070570;28;20190;-74
2023/05/19 01:36:47;;;;;;;10.93;4.03;;;10.00;99.90;;;;;;5069254;28;20201;-74
2023/05/19 01:39:14;;;;;;;7.47;5.10;;;9.90;99.90;;;;;;5058104;28;20194;-74
2023/05/19 01:41:43;;;;;;;8.13;3.77;;;10.00;99.90;;;;;;5073611;28;20193;-74
2023/05/19 01:44:10;;;;;;;9.10;4.33;;;10.00;99.90;;;;;;5058583;28;20251;-74
2023/05/19 01:46:38;;;;;;;8.30;4.17;;;9.90;99.90;;;;;;5066888;28;20190;-74
2023/05/19 01:49:07;;;;;;;7.00;3.87;;;10.00;99.90;;;;;;5069736;28;20229;-74
2023/05/19 01:51:34;;;;;;;10.37;5.13;;;10.00;99.90;;;;;;5073247;28;20255;-74
2023/05/19 01:54:00;;;;;;;6.20;3.70;;;10.00;99.90;;;;;;5074392;28;20320;-72
2023/05/19 01:56:46;;;;;;;7.50;3.57;;;10.00;99.90;;;;;;5067628;28;20251;-72
2023/05/19 01:59:32;;;;;;;8.40;3.30;;;10.00;99.90;;;;;;5070323;28;20201;-72
2023/05/19 02:02:02;;;;;;;6.83;3.70;;;9.90;99.90;;;;;;5060336;28;20255;-73
2023/05/19 02:04:38;;;;;;;5.23;3.47;;;9.90;99.90;;;;;;5072226;28;20193;-73
2023/05/19 02:07:12;;;;;;;5.00;3.10;;;10.00;99.90;;;;;;5054121;28;20243;-73
2023/05/19 02:09:47;;;;;;;5.83;3.43;;;10.00;99.90;;;;;;5069371;28;20275;-73
2023/05/19 02:12:19;;;;;;;7.57;3.13;;;9.90;99.90;;;;;;5073614;28;20635;-73
2023/05/19 02:14:59;;;;;;;6.87;3.80;;;9.90;99.90;;;;;;5074571;28;20616;-73
2023/05/19 02:17:29;;;;;;;6.40;3.37;;;9.90;99.90;;;;;;5072621;28;20197;-73
2023/05/19 02:19:56;;;;;;;5.97;3.90;;;9.80;99.90;;;;;;5073881;28;20205;-73
2023/05/19 02:22:23;;;;;;;7.10;3.80;;;9.80;99.90;;;;;;5070888;28;20274;-73
2023/05/19 02:24:50;;;;;;;6.10;3.40;;;9.70;99.90;;;;;;5073713;28;20189;-73
2023/05/19 02:27:17;;;;;;;6.07;3.30;;;9.70;99.90;;;;;;5073321;28;20200;-72
2023/05/19 02:29:44;;;;;;;6.40;3.10;;;9.70;99.90;;;;;;5073976;28;20566;-73
2023/05/19 02:32:11;;;;;;;7.33;3.53;;;9.60;99.90;;;;;;5073302;28;20193;-72
2023/05/19 02:34:37;;;;;;;7.87;3.20;;;9.50;99.90;;;;;;5073267;28;20197;-73
2023/05/19 02:37:06;;;;;;;6.73;2.90;;;9.40;99.90;;;;;;5071837;28;20686;-73
2023/05/19 02:39:34;;;;;;;8.77;3.90;;;9.30;99.90;;;;;;5073432;28;20197;-73
2023/05/19 02:42:00;;;;;;;8.33;3.60;;;9.20;99.90;;;;;;5072838;28;20197;-73
2023/05/19 02:44:27;;;;;;;9.50;3.40;;;9.10;99.90;;;;;;5071933;28;20200;-73
2023/05/19 02:46:53;;;;;;;5.13;3.13;;;9.10;99.90;;;;;;5072901;28;20197;-73
2023/05/19 02:49:20;;;;;;;6.33;3.23;;;9.00;99.90;;;;;;5072837;28;20631;-73
2023/05/19 02:51:46;;;;;;;4.17;3.00;;;9.00;99.90;;;;;;5071410;28;20250;-73
2023/05/19 02:54:14;;;;;;;4.07;3.00;;;9.00;99.90;;;;;;5063291;28;20263;-73
2023/05/19 02:56:41;;;;;;;6.57;3.20;;;8.90;99.90;;;;;;5066379;28;20255;-72
2023/05/19 02:59:07;;;;;;;5.53;3.20;;;8.90;99.90;;;;;;5063414;28;20201;-73
2023/05/19 03:01:36;;;;;;;6.83;3.40;;;8.80;99.90;;;;;;5072836;28;20645;-72
2023/05/19 03:04:03;;;;;;;5.70;3.03;;;8.70;99.90;;;;;;5055507;28;20545;-72
2023/05/19 03:06:31;;;;;;;5.13;2.93;;;8.70;99.90;;;;;;5070687;28;20629;-73
2023/05/19 03:08:58;;;;;;;8.33;3.80;;;8.60;99.90;;;;;;5054524;28;20218;-73
2023/05/19 03:11:26;;;;;;;5.97;3.27;;;8.50;99.90;;;;;;5053494;28;20198;-73
2023/05/19 03:13:52;;;;;;;6.00;3.60;;;8.50;99.90;;;;;;5056117;28;20202;-73
2023/05/19 03:16:19;;;;;;;8.50;3.30;;;8.50;99.90;;;;;;5053165;28;20653;-73
2023/05/19 03:18:45;;;;;;;4.43;2.97;;;8.50;99.90;;;;;;5066534;28;20282;-73
2023/05/19 03:21:12;;;;;;;4.07;3.10;;;8.50;99.90;;;;;;5059274;28;20248;-73
2023/05/19 03:23:39;;;;;;;7.67;3.27;;;8.50;99.90;;;;;;5070188;28;20197;-73
2023/05/19 03:26:05;;;;;;;5.63;3.57;;;8.40;99.90;;;;;;5069640;28;20201;-73
2023/05/19 03:28:33;;;;;;;6.23;3.40;;;8.40;99.90;;;;;;5054124;28;20275;-73
2023/05/19 03:31:00;;;;;;;4.80;2.90;;;8.40;99.90;;;;;;5053118;28;20198;-73
2023/05/19 03:33:28;;;;;;;7.53;3.37;;;8.40;99.90;;;;;;5064649;28;20790;-73
2023/05/19 03:35:56;;;;;;;8.70;3.50;;;8.40;99.90;;;;;;5072290;28;20221;-73
2023/05/19 03:38:22;;;;;;;5.73;3.77;;;8.30;99.90;;;;;;5062857;28;20636;-73
2023/05/19 03:40:49;;;;;;;5.50;3.47;;;8.30;99.90;;;;;;5072029;28;20197;-73
2023/05/19 03:43:16;;;;;;;7.10;3.30;;;8.30;99.90;;;;;;5072372;28;20247;-73
2023/05/19 03:45:44;;;;;;;7.53;3.73;;;8.30;99.90;;;;;;5071967;28;20284;-73
2023/05/19 03:48:11;;;;;;;5.90;3.80;;;8.30;99.90;;;;;;5060998;28;20279;-73
2023/05/19 03:50:38;;;;;;;6.77;3.60;;;8.30;99.90;;;;;;5052141;28;20226;-72
2023/05/19 03:53:04;;;;;;;7.07;3.87;;;8.30;99.90;;;;;;5059089;28;20244;-73
2023/05/19 03:55:31;;;;;;;7.07;3.43;;;8.30;99.90;;;;;;5065585;28;20295;-73
2023/05/19 03:57:58;;;;;;;6.13;3.33;;;8.30;99.90;;;;;;5071102;28;20640;-73
2023/05/19 04:00:24;;;;;;;6.77;3.67;;;8.30;99.90;;;;;;5066071;28;20335;-73
2023/05/19 04:02:52;;;;;;;9.93;3.60;;;8.30;99.90;;;;;;5052951;28;20260;-73
2023/05/19 04:05:19;;;;;;;7.20;4.00;;;8.30;99.90;;;;;;5064646;28;20243;-73
2023/05/19 04:07:46;;;;;;;6.20;3.93;;;8.40;99.90;;;;;;5071773;28;20346;-73
2023/05/19 04:10:13;;;;;;;7.87;3.57;;;8.40;99.90;;;;;;5071947;28;20415;-73
2023/05/19 04:12:40;;;;;;;5.50;3.73;;;8.50;99.90;;;;;;5058631;28;20602;-73
2023/05/19 04:15:10;;;;;;;8.00;3.50;;;8.50;99.90;;;;;;5071720;28;20201;-73
2023/05/19 04:17:36;;;;;;;9.80;3.53;;;8.60;99.90;;;;;;5058135;28;20597;-73
2023/05/19 04:20:05;;;;;;;6.90;3.23;;;8.60;99.90;;;;;;5071935;28;20197;-73
2023/05/19 04:22:32;;;;;;;5.77;3.40;;;8.70;99.90;;;;;;5063179;28;20189;-73
2023/05/19 04:24:59;;;;;;;6.00;3.33;;;8.70;99.90;;;;;;5071713;28;20248;-73
2023/05/19 04:27:26;;;;;;;6.40;3.37;;;8.80;99.90;;;;;;5070855;28;20280;-73
2023/05/19 04:29:53;;;;;;;9.33;3.53;;;8.80;99.90;;;;;;5067031;28;20696;-73
2023/05/19 04:32:21;;;;;;;6.53;3.60;;;8.90;99.90;;;;;;5070936;28;20198;-72
2023/05/19 04:34:48;;;;;;;6.67;3.83;;;9.00;99.90;;;;;;5072217;28;20246;-73
2023/05/19 04:37:16;;;;;;;5.53;3.60;;;9.00;99.90;;;;;;5071960;28;20196;-73
2023/05/19 04:39:44;;;;;;;5.63;3.73;;;9.10;99.90;;;;;;5071229;28;20668;-73
2023/05/19 04:42:11;;;;;;;6.77;3.30;;;9.20;99.90;;;;;;5063860;28;20305;-73
2023/05/19 04:44:38;;;;;;;6.20;4.10;;;9.30;99.90;;;;;;5057607;28;20205;-73
2023/05/19 04:47:07;;;;;;;8.90;3.63;;;9.40;99.90;;;;;;5069600;28;20232;-73
2023/05/19 04:49:37;;;;;;;5.47;3.30;;;9.40;99.90;;;;;;5059008;28;20221;-73
2023/05/19 04:52:06;;;;;;;7.17;3.83;;;9.50;99.90;;;;;;5062234;28;20680;-73
2023/05/19 04:54:34;;;;;;;6.90;3.67;;;9.50;99.90;;;;;;5062116;28;20225;-73
2023/05/19 04:57:00;;;;;;;5.43;3.67;;;9.60;99.90;;;;;;5055997;28;20248;-73
2023/05/19 04:59:27;;;;;;;6.23;3.60;;;9.70;99.90;;;;;;5055636;28;20202;-73
2023/05/19 05:01:54;;;;;;;7.23;3.50;;;9.80;99.90;;;;;;5055766;28;20209;-73
2023/05/19 05:04:21;;;;;;;6.77;3.70;;;9.80;99.90;;;;;;5068338;28;20197;-71
2023/05/19 05:06:48;;;;;;;7.60;3.33;;;9.90;99.90;;;;;;5075400;28;20665;-83
2023/05/19 05:09:15;;;;;;;5.20;3.43;;;10.00;99.90;;;;;;5076702;28;20212;-83
2023/05/19 05:11:44;;;;;;;8.83;3.70;;;10.10;99.90;;;;;;5096222;28;20196;-78
2023/05/19 05:14:11;;;;;;;5.13;3.63;;;10.20;99.90;;;;;;5091226;28;20229;-85
2023/05/19 05:16:38;;;;;;;6.03;3.60;;;10.20;99.90;;;;;;5079785;28;20652;-84
2023/05/19 05:19:05;;;;;;;8.60;3.53;;;10.20;99.90;;;;;;5080682;28;20201;-84
2023/05/19 05:21:33;;;;;;;5.60;3.13;;;10.40;99.90;;;;;;5079200;28;20270;-83
2023/05/19 05:24:00;;;;;;;15.67;4.40;;;10.40;99.90;;;;;;5084123;28;20197;-85
2023/05/19 05:26:30;;;;;;;6.47;3.40;;;10.50;99.90;;;;;;5079073;28;20201;-84
2023/05/19 05:28:58;;;;;;;6.27;3.60;;;10.70;99.90;;;;;;5059837;28;20215;-88
2023/05/19 05:31:25;;;;;;;7.67;3.33;;;10.70;99.90;;;;;;5060985;28;20224;-88
2023/05/19 05:33:52;;;;;;;7.43;3.53;;;10.70;99.90;;;;;;5058894;28;20201;-88
2023/05/19 05:36:19;;;;;;;9.07;4.13;;;10.90;99.90;;;;;;5062443;28;20240;-86
2023/05/19 05:38:45;;;;;;;6.57;3.63;;;10.90;99.90;;;;;;5067547;28;20276;-81
2023/05/19 05:41:12;;;;;;;6.37;3.60;;;11.10;99.90;;;;;;5071290;28;20201;-74
2023/05/19 05:43:38;;;;;;;7.83;3.80;;;11.10;99.90;;;;;;5071343;28;20251;-74
2023/05/19 05:46:06;;;;;;;7.60;3.33;;;11.10;99.90;;;;;;5065778;28;20628;-74
2023/05/19 05:48:34;;;;;;;6.90;3.80;;;11.20;99.90;;;;;;5064045;28;20250;-76
2023/05/19 05:51:01;;;;;;;6.77;3.73;;;11.30;99.90;;;;;;5067919;28;20225;-74
2023/05/19 05:53:30;;;;;;;6.73;3.40;;;11.20;99.90;;;;;;5070238;28;20263;-75
2023/05/19 05:55:59;;;;;;;6.63;3.60;;;11.30;99.90;;;;;;5073808;28;20193;-74
2023/05/19 05:58:25;;;;;;;10.10;4.20;;;11.30;99.90;;;;;;5074482;28;20205;-75
2023/05/19 06:00:56;;;;;;;6.57;3.40;;;11.30;99.90;;;;;;5070815;28;20202;-74
2023/05/19 06:03:25;;;;;;;6.60;3.37;;;11.30;99.90;;;;;;5054746;28;20193;-73
2023/05/19 06:05:52;;;;;;;6.23;3.73;;;11.30;99.90;;;;;;5054042;28;20653;-73
2023/05/19 06:08:18;;;;;;;10.73;3.83;;;11.40;99.90;;;;;;5064015;28;20197;-73
2023/05/19 06:10:45;;;;;;;8.13;3.80;;;11.60;99.90;;;;;;5068403;28;20692;-74
2023/05/19 06:13:11;;;;;;;9.87;3.60;;;11.90;99.90;;;;;;5073125;28;20259;-73
2023/05/19 06:15:38;;;;;;;5.23;3.53;;;12.20;99.90;;;;;;5042599;28;20234;-74
2023/05/19 06:18:05;;;;;;;8.50;3.90;;;12.40;99.90;;;;;;5051059;28;20653;-74
2023/05/19 06:20:33;;;;;;;10.73;4.40;;;12.60;99.90;;;;;;5067175;28;20652;-77
2023/05/19 06:23:00;;;;;;;6.80;3.87;;;12.80;99.90;;;;;;5056669;28;20194;-74
2023/05/19 06:25:27;;;;;;;6.63;3.80;;;12.90;99.90;;;;;;5070827;28;20550;-73
2023/05/19 06:27:54;;;;;;;5.37;3.40;;;12.90;99.90;;;;;;5059326;28;20197;-73
2023/05/19 06:30:20;;;;;;;14.77;5.57;;;13.00;99.90;;;;;;5069576;28;20576;-72
2023/05/19 06:32:47;;;;;;;8.97;4.57;;;13.00;99.90;;;;;;5052677;28;20720;-72
2023/05/19 06:35:14;;;;;;;7.67;3.67;;;13.00;99.90;;;;;;5058698;28;20193;-74
2023/05/19 06:37:41;;;;;;;7.33;3.87;;;13.00;99.90;;;;;;5057481;28;20557;-73
2023/05/19 06:40:09;;;;;;;9.17;4.13;;;13.10;99.90;;;;;;5069367;28;20193;-75
2023/05/19 06:42:36;;;;;;;5.90;3.80;;;13.20;99.90;;;;;;5062638;28;20201;-72
2023/05/19 06:45:02;;;;;;;6.87;3.70;;;13.40;99.90;;;;;;5062501;28;20201;-73
2023/05/19 06:47:29;;;;;;;7.43;3.57;;;13.80;99.90;;;;;;5056230;28;20202;-72
2023/05/19 06:49:56;;;;;;;6.60;3.50;;;14.10;99.90;;;;;;5072510;28;20224;-73
2023/05/19 06:52:23;;;;;;;6.63;3.83;;;14.30;99.90;;;;;;5058976;28;20653;-74
2023/05/19 06:54:51;;;;;;;5.28;3.53;;;14.50;99.90;;;;;;5066161;28;20212;-73
2023/05/19 06:57:18;;;;;;;7.10;3.80;;;14.40;99.90;;;;;;5063025;28;20680;-73
2023/05/19 06:59:45;;;;;;;9.63;3.90;;;14.20;99.90;;;;;;5062668;28;20197;-73
2023/05/19 07:02:12;;;;;;;10.30;3.88;;;14.10;99.90;;;;;;5061433;28;20243;-72
2023/05/19 07:04:38;;;;;;;7.40;4.15;;;14.10;99.90;;;;;;5039744;28;20197;-69
2023/05/19 07:07:05;;;;;;;6.20;3.80;;;14.00;99.90;;;;;;5059639;28;20197;-73
2023/05/19 07:09:32;;;;;;;5.50;3.33;;;14.00;99.90;;;;;;5060638;28;20664;-71
2023/05/19 07:12:00;;;;;;;6.93;4.10;;;14.10;99.90;;;;;;5060790;28;20255;-72
2023/05/19 07:14:26;;;;;;;8.83;4.30;;;14.10;99.90;;;;;;5063945;28;20282;-72
2023/05/19 07:16:53;;;;;;;8.00;4.10;;;14.20;99.90;;;;;;5048281;28;20596;-72
2023/05/19 07:19:20;;;;;;;7.43;3.90;;;14.30;99.90;;;;;;5061894;28;20209;-73
2023/05/19 07:21:46;;;;;;;6.77;4.13;;;14.50;99.90;;;;;;5063370;28;20193;-72
2023/05/19 07:24:13;;;;;;;8.95;4.40;;;14.90;99.90;;;;;;5062008;28;20270;-73
2023/05/19 07:26:41;;;;;;;6.32;4.18;;;15.10;99.90;;;;;;5060557;28;20238;-70
2023/05/19 07:29:09;;;;;;;10.10;4.00;;;15.50;99.90;;;;;;5049771;28;20923;-71
2023/05/19 07:31:35;;;;;;;8.40;3.95;;;15.50;99.90;;;;;;5048123;28;20221;-71
2023/05/19 07:34:03;;;;;;;6.70;3.90;;;15.60;99.90;;;;;;5062016;28;20201;-71
2023/05/19 07:36:30;;;;;;;8.95;4.22;;;15.70;99.90;;;;;;5066896;28;20196;-72
2023/05/19 07:38:56;;;;;;;7.20;4.15;;;15.70;99.90;;;;;;5048019;28;20591;-72
2023/05/19 07:41:23;;;;;;;7.15;3.90;;;15.80;99.90;;;;;;5058859;28;20204;-73
2023/05/19 07:43:49;;;;;;;9.55;4.28;;;16.00;99.90;;;;;;5054756;28;20298;-72
2023/05/19 07:46:17;;;;;;;7.55;4.35;;;16.30;99.90;;;;;;5050400;28;20185;-72
2023/05/19 07:48:44;;;;;;;8.00;3.78;;;16.40;99.90;;;;;;5065098;28;21323;-72
2023/05/19 07:51:12;;;;;;;10.05;4.47;;;16.60;99.90;;;;;;5065557;28;20229;-71
2023/05/19 07:53:38;;;;;;;8.02;4.38;;;16.80;99.90;;;;;;5062022;28;20233;-71
2023/05/19 07:56:05;;;;;;;6.50;3.22;;;17.20;99.90;;;;;;5054874;28;20263;-72
2023/05/19 07:58:32;;;;;;;10.05;3.95;;;17.50;99.40;;;;;;5052589;28;20192;-72
2023/05/19 08:00:59;;;;;;;5.75;3.92;;;17.60;98.60;;;;;;5062614;28;20201;-72
2023/05/19 08:03:27;;;;;;;8.32;3.85;;;17.30;97.40;;;;;;5057776;28;20200;-70
2023/05/19 08:05:53;;;;;;;9.50;4.68;;;16.90;96.70;;;;;;5063390;28;20653;-70
2023/05/19 08:08:20;;;;;;;7.53;4.25;;;17.10;97.30;;;;;;5055468;28;20550;-79
2023/05/19 08:10:47;;;;;;;12.35;5.75;;;17.00;97.50;;;;;;5059052;28;20233;-82
2023/05/19 08:13:14;;;;;;;6.60;4.30;;;16.90;97.40;;;;;;5057079;28;20251;-82
2023/05/19 08:15:41;;;;;;;7.88;3.75;;;16.90;97.60;;;;;;5059325;28;20201;-82
2023/05/19 08:18:08;;;;;;;8.38;4.45;;;16.80;97.70;;;;;;5057148;28;20197;-86
2023/05/19 08:20:36;;;;;;;9.73;4.47;;;17.00;97.40;;;;;;5054288;28;20189;-79
2023/05/19 08:23:03;;;;;;;8.70;3.97;;;17.20;97.60;;;;;;5063515;28;20213;-81
2023/05/19 08:25:29;;;;;;;5.75;4.07;;;17.30;96.70;;;;;;5056576;28;20209;-84
2023/05/19 08:27:56;;;;;;;6.85;4.18;;;17.50;96.70;;;;;;5056297;28;20198;-73
2023/05/19 08:30:23;;;;;;;9.23;4.30;;;17.70;96.60;;;;;;5055302;28;20302;-73
2023/05/19 08:32:49;;;;;;;8.63;3.50;;;17.70;95.80;;;;;;5067808;28;20201;-73
2023/05/19 08:35:16;;;;;;;6.55;4.13;;;17.70;95.60;;;;;;5066824;28;20251;-73
2023/05/19 08:37:44;;;;;;;8.93;4.10;;;17.70;95.80;;;;;;5067803;28;20608;-73
2023/05/19 08:40:17;;;;;;;8.45;4.22;;;17.70;95.80;;;;;;5062244;28;20641;-73
2023/05/19 08:42:44;;;;;;;5.18;3.55;;;17.90;95.70;;;;;;5064681;28;20221;-73
2023/05/19 08:45:11;;;;;;;9.35;3.80;;;17.80;94.90;;;;;;5069299;28;20235;-72
2023/05/19 08:47:38;;;;;;;7.85;4.22;;;17.90;95.60;;;;;;5061310;28;20287;-71
2023/05/19 08:50:08;;;;;;;8.93;3.95;;;18.30;95.00;;;;;;5062733;28;20255;-72
2023/05/19 08:52:48;;;;;;;8.23;4.75;;;18.30;94.20;;;;;;5066196;28;20233;-73
2023/05/19 08:55:26;;;;;;;9.07;3.85;;;18.50;93.60;;;;;;5057914;28;20193;-73
2023/05/19 08:57:53;;;;;;;7.40;3.80;;;18.40;94.00;;;;;;5069824;28;20265;-72
2023/05/19 09:00:21;;;;;;;6.78;3.90;;;18.30;93.50;;;;;;5061469;28;21327;-71
2023/05/19 09:02:49;;;;;;;8.15;3.55;;;18.20;93.70;;;;;;5058563;28;20744;-73
2023/05/19 09:05:16;;;;;;;7.75;3.95;;;18.10;93.90;;;;;;5064749;28;20189;-72
2023/05/19 09:07:44;;;;;;;7.07;3.72;;;18.10;94.00;;;;;;5066143;28;20254;-72
2023/05/19 09:10:13;;;;;;;6.88;4.32;;;18.20;93.70;;;;;;5059481;28;21574;-72
2023/05/19 09:12:41;;;;;;;8.55;4.20;;;18.00;93.30;;;;;;5069403;28;20543;-72
2023/05/19 09:15:09;;;;;;;10.43;4.30;;;17.70;93.60;;;;;;5062550;28;20205;-72
2023/05/19 09:17:37;;;;;;;5.97;3.83;;;18.00;93.20;;;;;;5070350;28;20197;-72
2023/05/19 09:20:09;;;;;;;7.82;4.25;;;18.00;92.80;;;;;;5060538;28;20256;-73
2023/05/19 09:22:41;;;;;;;6.88;3.83;;;17.90;92.90;;;;;;5068823;28;20190;-72
2023/05/19 09:25:17;;;;;;;7.68;4.10;;;17.80;92.90;;;;;;5062369;28;20205;-73
2023/05/19 09:27:46;;;;;;;5.65;3.90;;;17.30;93.20;;;;;;5072603;28;20705;-73
2023/05/19 09:30:14;;;;;;;5.72;3.80;;;17.20;93.60;;;;;;5064957;28;20193;-75
2023/05/19 09:32:41;;;;;;;6.93;3.80;;;17.30;94.00;;;;;;5059539;28;20544;-74
2023/05/19 09:35:08;;;;;;;7.68;3.78;;;17.40;93.70;;;;;;5068000;28;20201;-74
2023/05/19 09:37:38;;;;;;;6.70;3.90;;;17.40;93.90;;;;;;5070118;28;20548;-74
2023/05/19 09:40:08;;;;;;;8.00;3.90;;;17.40;93.90;;;;;;5065480;28;20243;-74
2023/05/19 09:42:37;;;;;;;7.47;3.90;;;17.50;94.00;;;;;;5065817;28;20209;-73
2023/05/19 09:45:07;;;;;;;8.52;3.88;;;17.70;94.10;;;;;;5068476;28;20198;-73
2023/05/19 09:47:36;;;;;;;6.35;3.78;;;17.80;93.50;;;;;;5070257;28;20201;-73
2023/05/19 09:50:05;;;;;;;7.78;3.90;;;17.50;93.50;;;;;;5063382;28;20192;-73
2023/05/19 09:52:34;;;;;;;9.68;4.03;;;17.60;93.60;;;;;;5064788;28;20310;-71
2023/05/19 09:55:03;;;;;;;7.72;4.05;;;17.60;93.40;;;;;;5055399;28;20238;-73
2023/05/19 09:57:34;;;;;;;6.70;4.10;;;17.70;93.20;;;;;;5058206;28;20804;-73
2023/05/19 10:00:05;;;;;;;4.95;3.67;;;17.80;93.20;;;;;;5066167;28;20231;-73
2023/05/19 10:02:33;;;;;;;7.20;4.18;;;17.80;93.20;;;;;;5074082;28;20197;-72
2023/05/19 10:05:01;;;;;;;5.88;3.50;;;17.90;93.60;;;;;;5059937;28;20197;-72
2023/05/19 10:07:28;;;;;;;6.43;3.25;;;18.10;93.40;;;;;;5069154;28;20530;-72
2023/05/19 10:09:55;;;;;;;6.95;3.78;;;18.10;93.10;;;;;;5054825;28;20198;-72
2023/05/19 10:12:22;;;;;;;8.77;3.70;;;18.10;93.40;;;;;;5068485;28;20357;-72
2023/05/19 10:14:51;;;;;;;5.53;3.65;;;17.90;93.40;;;;;;5067891;28;20247;-73
2023/05/19 10:17:18;;;;;;;9.48;3.60;;;18.00;93.70;;;;;;5062827;28;20202;-72
2023/05/19 10:19:50;;;;;;;6.55;4.00;;;17.80;93.60;;;;;;5072130;28;20196;-73
2023/05/19 10:22:16;;;;;;;6.78;4.00;;;17.70;94.10;;;;;;5074286;28;20243;-72
2023/05/19 10:24:43;;;;;;;5.90;3.60;;;17.60;93.70;;;;;;5062322;28;20249;-73
2023/05/19 10:27:13;;;;;;;6.25;4.38;;;17.60;93.70;;;;;;5054947;28;20210;-72
2023/05/19 10:29:45;;;;;;;6.03;4.25;;;17.50;93.90;;;;;;5055270;28;20376;-71
2023/05/19 10:32:17;;;;;;;5.13;3.55;;;17.40;93.80;;;;;;5068808;28;20274;-71
2023/05/19 10:35:13;;;;;;;5.28;3.80;;;17.00;94.20;;;;;;5060547;28;20246;-71
2023/05/19 10:37:46;;;;;;;8.52;3.97;;;16.80;95.00;;;;;;5029783;28;20247;-72
2023/05/19 10:40:20;;;;;;;5.50;3.67;;;16.80;95.00;;;;;;5057318;28;20194;-72
2023/05/19 10:42:57;;;;;;;3.97;2.95;;;16.70;94.90;;;;;;5066173;28;20201;-72
2023/05/19 10:45:27;;;;;;;5.55;3.38;;;16.70;94.40;;;;;;5062316;28;20649;-71
2023/05/19 10:47:54;;;;;;;5.60;3.30;;;16.90;93.90;;;;;;5071089;28;20729;-71
2023/05/19 10:50:22;;;;;;;3.95;3.00;;;16.80;93.90;;;;;;5070778;28;20189;-72
2023/05/19 10:52:54;;;;;;;6.57;3.40;;;17.00;94.00;;;;;;5069026;28;20232;-72
2023/05/19 10:55:45;;;;;;;4.07;3.63;;;17.20;94.30;;;;;;5071999;28;20197;-72
2023/05/19 10:58:12;;;;;;;5.05;3.20;;;17.00;93.70;;;;;;5067475;28;20193;-72
2023/05/19 11:00:39;;;;;;;3.42;2.70;;;17.20;93.50;;;;;;5065254;28;20645;-71
2023/05/19 11:03:13;;;;;;;3.45;2.88;;;17.20;93.40;;;;;;5068838;28;20204;-73
2023/05/19 11:05:44;;;;;;;7.18;3.33;;;17.20;93.40;;;;;;5063036;28;20197;-73
2023/05/19 11:08:11;;;;;;;3.80;2.85;;;17.20;93.00;;;;;;5059986;28;20239;-72
2023/05/19 11:10:38;;;;;;;7.28;3.20;;;17.30;93.70;;;;;;5068911;28;20220;-73
2023/05/19 11:13:05;;;;;;;4.25;3.45;;;17.60;93.90;;;;;;5071202;28;20692;-72
2023/05/19 11:15:35;;;;;;;4.35;2.83;;;17.70;92.90;;;;;;5071290;28;20204;-74
2023/05/19 11:18:02;;;;;;;6.03;2.80;;;17.80;92.40;;;;;;5067829;28;20201;-73
2023/05/19 11:20:30;;;;;;;3.35;2.78;;;17.70;92.90;;;;;;5071364;28;20592;-73
2023/05/19 11:23:09;;;;;;;3.67;2.45;;;17.50;92.80;;;;;;5071032;28;20205;-73
2023/05/19 11:25:43;;;;;;;5.07;2.60;;;17.60;92.50;;;;;;5070789;28;20571;-73
2023/05/19 11:28:11;;;;;;;4.05;2.70;;;17.90;92.80;;;;;;5071302;28;20204;-73
2023/05/19 11:30:39;;;;;;;5.18;2.72;;;18.40;92.50;;;;;;5063868;28;20542;-71
2023/05/19 11:33:06;;;;;;;5.45;3.47;;;18.50;91.90;;;;;;5051270;28;20708;-73
2023/05/19 11:35:33;;;;;;;4.93;3.20;;;18.70;91.50;;;;;;5062993;28;20196;-73
2023/05/19 11:38:01;;;;;;;5.55;2.92;;;19.10;91.40;;;;;;5067480;28;20213;-74
2023/05/19 11:40:30;;;;;;;6.68;2.97;;;19.70;90.40;;;;;;5069524;28;20292;-73
2023/05/19 11:42:56;;;;;;;4.88;3.25;;;20.70;87.60;;;;;;5066026;28;20607;-73
2023/05/19 11:45:27;;;;;;;6.38;3.60;;;21.40;85.10;;;;;;5065674;28;20201;-73
2023/05/19 11:47:56;;;;;;;3.65;2.45;;;21.90;82.00;;;;;;5060141;28;20251;-73
2023/05/19 11:50:22;;;;;;;3.53;2.88;;;21.70;79.30;;;;;;5069929;28;20199;-73
2023/05/19 11:52:50;;;;;;;4.60;2.80;;;22.00;77.40;;;;;;5058647;28;20229;-72
2023/05/19 11:55:17;;;;;;;3.60;2.45;;;22.40;76.00;;;;;;5060928;28;20189;-73
2023/05/19 11:57:57;;;;;;;4.05;2.90;;;22.90;73.30;;;;;;5062655;28;20197;-73
2023/05/19 12:00:24;;;;;;;4.47;2.85;;;22.90;72.60;;;;;;5061853;28;20284;-72
2023/05/19 12:02:51;;;;;;;4.80;3.00;;;22.10;70.50;;;;;;5068883;28;20280;-72
2023/05/19 12:05:19;;;;;;;9.60;3.45;;;22.20;72.10;;;;;;5056154;28;20596;-73
2023/05/19 12:07:48;;;;;;;4.78;3.45;;;22.40;71.90;;;;;;5056207;28;20201;-72
2023/05/19 12:10:15;;;;;;;5.10;2.92;;;22.80;71.40;;;;;;5057568;28;20224;-73
2023/05/19 12:12:43;;;;;;;9.18;3.10;;;22.80;69.60;;;;;;5057129;28;20950;-72
2023/05/19 12:15:12;;;;;;;3.53;2.70;;;22.70;68.00;;;;;;5062202;28;20208;-71
2023/05/19 12:17:39;;;;;;;3.42;2.78;;;22.20;66.50;;;;;;5071043;28;20552;-71
2023/05/19 12:20:06;;;;;;;6.22;3.20;;;22.80;66.70;;;;;;5068921;28;20200;-71
2023/05/19 12:22:34;;;;;;;7.32;2.72;;;23.50;64.40;;;;;;5061812;28;20208;-72
2023/05/19 12:25:01;;;;;;;3.95;2.80;;;23.70;62.50;;;;;;5063347;28;20201;-73
2023/05/19 12:27:28;;;;;;;6.10;3.00;;;23.40;64.40;;;;;;5065837;28;20194;-71
2023/05/19 12:29:57;;;;;;;5.40;3.35;;;24.00;63.10;;;;;;5057414;28;20664;-71
2023/05/19 12:32:26;;;;;;;9.20;3.20;;;25.10;61.30;;;;;;5062935;28;20225;-72
2023/05/19 12:34:53;;;;;;;3.95;2.75;;;24.30;59.00;;;;;;5056731;28;20198;-72
2023/05/19 12:37:20;;;;;;;4.82;2.85;;;24.30;57.70;;;;;;5068780;28;20242;-70
2023/05/19 12:39:48;;;;;;;5.40;3.15;;;24.90;59.90;;;;;;5052283;28;20186;-73
2023/05/19 12:42:16;;;;;;;6.43;2.97;;;25.30;56.70;;;;;;5059987;28;20201;-72
2023/05/19 12:44:45;;;;;;;5.88;3.10;;;25.00;56.00;;;;;;5060845;28;20198;-72
2023/05/19 12:47:13;;;;;;;4.22;2.58;;;24.40;55.30;;;;;;5062610;28;20200;-73
2023/05/19 12:49:55;;;;;;;4.30;2.90;;;24.00;56.30;;;;;;5065210;28;20197;-71
2023/05/19 12:52:23;;;;;;;3.30;2.85;;;23.30;58.00;;;;;;5060091;28;20233;-72
2023/05/19 12:54:51;;;;;;;5.07;2.95;;;23.20;57.30;;;;;;5062253;28;20205;-72
2023/05/19 12:57:17;;;;;;;4.65;3.00;;;23.20;56.90;;;;;;5068822;28;20209;-71